Aurora, CO (80018)

11:40 AM MDT on July 04, 2015 (GMT -0600)
Thunderbird Estates | | Change Station
CLOSE
Current Station
Personal Weather Station
Location: Aurora, CO
Elevation: 5617 ft
Nearby Weather Stations

Elev 5617 ft 39.71 °N, 104.70 °W | Updated 6 minutes ago

Scattered Clouds
Scattered Clouds
89.2 °F
Feels Like 88 °F
N
1.1
Wind Variable Wind from NE

Today
High -- | Low -- °F
--% Chance of Precip.
Yesterday
High -- | Low -- °F
Precip. -- in
5:36 AM 8:30 PM
Waning Gibbous, 91% visible
Pressure 29.81 in
Visibility 10.0 miles
Clouds Few 8000 ft
Few 14000 ft
Scattered Clouds 22000 ft
Heat Index 88 °F
Dew Point 56 °F
Humidity 33%
Rainfall 0.00 in
Snow Depth Not available.
UV 8 out of 12
Pollen 5.30 out of 12
Air Quality Not available.
Flu Activity Not available.
METAR KBKF 041658Z 17003KT 10SM FEW080 FEW140 SCT220 28/12 A3005 RMK AO2A SLP093 T02810120

More Conditions Fewer Conditions

Pressure 29.81 in
Visibility 10.0 miles
Clouds Few 8000 ft
Few 14000 ft
Scattered Clouds 22000 ft
Heat Index 88 °F
Dew Point 56 °F
Humidity 33%
Rainfall 0.00 in
Snow Depth Not available.
UV 8 out of 12
Pollen 5.30 out of 12
Air Quality Not available.
Flu Activity Not available.
METAR KBKF 041658Z 17003KT 10SM FEW080 FEW140 SCT220 28/12 A3005 RMK AO2A SLP093 T02810120

More Conditions Fewer Conditions

10-Day Weather Forecast

×

Almanac

Astronomy

Jul. 04, 2015 Rise Set
Actual Time
Civil Twilight
Nautical Twilight
Astronomical Twilight
Moon
Length of Visible Light
Length of Day
Tomorrow will be .
, % of the Moon is Illuminated

Today's Extremes

State Highs State Lows

Community

WunderPhotos

Upload Photos

1,835,012 photos uploaded!

WunderBlogs® & News

Nearby

Air Quality

  Air Quality AQ Index Pollutant
Not available.

Snow Depth

Station Depth Elevation

Earthquake Activity

City Distance Mag. Time & Date
Minimum magnitude displayed is 2.5.

Coastal Water Temperatures

Place Temperature

Stations

Nearby Weather Stations

Station Location Temp. Windchill Dew Point Humidity Wind Precip. Elev Updated Type